sensor_id;sensor_type;location;lat;lon;timestamp;pressure;altitude;pressure_sealevel;temperature;humidity
13015;BME280;6573;57.696;11.950;2022-08-25T00:01:52;102358.25;;;19.42;100.00
13015;BME280;6573;57.696;11.950;2022-08-25T00:04:23;102354.75;;;19.40;100.00
13015;BME280;6573;57.696;11.950;2022-08-25T00:06:52;102356.47;;;19.41;100.00
13015;BME280;6573;57.696;11.950;2022-08-25T00:09:26;102345.88;;;19.34;100.00
13015;BME280;6573;57.696;11.950;2022-08-25T00:11:54;102351.03;;;19.50;100.00
13015;BME280;6573;57.696;11.950;2022-08-25T00:14:24;102342.28;;;19.35;100.00
13015;BME280;6573;57.696;11.950;2022-08-25T00:16:53;102356.38;;;19.50;100.00
13015;BME280;6573;57.696;11.950;2022-08-25T00:19:26;102345.88;;;19.34;100.00
13015;BME280;6573;57.696;11.950;2022-08-25T00:21:55;102353.03;;;19.31;100.00
13015;BME280;6573;57.696;11.950;2022-08-25T00:24:24;102349.56;;;19.27;100.00
13015;BME280;6573;57.696;11.950;2022-08-25T00:26:54;102340.72;;;19.22;100.00
13015;BME280;6573;57.696;11.950;2022-08-25T00:29:24;102349.59;;;19.24;100.00
13015;BME280;6573;57.696;11.950;2022-08-25T00:31:53;102344.22;;;19.27;100.00
13015;BME280;6573;57.696;11.950;2022-08-25T00:34:26;102328.34;;;19.15;100.00
13015;BME280;6573;57.696;11.950;2022-08-25T00:36:58;102345.97;;;19.28;100.00
13015;BME280;6573;57.696;11.950;2022-08-25T00:39:28;102337.81;;;19.42;100.00
13015;BME280;6573;57.696;11.950;2022-08-25T00:41:57;102356.53;;;19.37;100.00
13015;BME280;6573;57.696;11.950;2022-08-25T00:44:27;102346.66;;;19.43;100.00
13015;BME280;6573;57.696;11.950;2022-08-25T00:46:58;102350.31;;;19.37;100.00
13015;BME280;6573;57.696;11.950;2022-08-25T00:49:32;102345.84;;;19.37;100.00
13015;BME280;6573;57.696;11.950;2022-08-25T00:52:03;102345.81;;;19.41;100.00
13015;BME280;6573;57.696;11.950;2022-08-25T00:54:38;102360.00;;;19.43;100.00
13015;BME280;6573;57.696;11.950;2022-08-25T00:57:10;102352.88;;;19.45;100.00
13015;BME280;6573;57.696;11.950;2022-08-25T00:59:41;102361.72;;;19.50;100.00
13015;BME280;6573;57.696;11.950;2022-08-25T01:02:12;102346.53;;;19.50;100.00
13015;BME280;6573;57.696;11.950;2022-08-25T01:04:43;102319.31;;;19.25;100.00
13015;BME280;6573;57.696;11.950;2022-08-25T01:07:16;102351.16;;;19.41;100.00
13015;BME280;6573;57.696;11.950;2022-08-25T01:09:47;102342.28;;;19.35;100.00
13015;BME280;6573;57.696;11.950;2022-08-25T01:12:16;102340.50;;;19.37;100.00
13015;BME280;6573;57.696;11.950;2022-08-25T01:14:45;102352.00;;;19.44;100.00
13015;BME280;6573;57.696;11.950;2022-08-25T01:17:13;102346.69;;;19.41;100.00
13015;BME280;6573;57.696;11.950;2022-08-25T01:19:43;102344.06;;;19.38;100.00
13015;BME280;6573;57.696;11.950;2022-08-25T01:22:13;102331.72;;;19.29;100.00
13015;BME280;6573;57.696;11.950;2022-08-25T01:24:49;102347.63;;;19.35;100.00
13015;BME280;6573;57.696;11.950;2022-08-25T01:27:20;102345.91;;;19.31;100.00
13015;BME280;6573;57.696;11.950;2022-08-25T01:29:48;102345.06;;;19.28;100.00
13015;BME280;6573;57.696;11.950;2022-08-25T01:32:16;102344.25;;;19.24;100.00
13015;BME280;6573;57.696;11.950;2022-08-25T01:34:45;102349.59;;;19.24;100.00
13015;BME280;6573;57.696;11.950;2022-08-25T01:37:15;102346.06;;;19.22;100.00
13015;BME280;6573;57.696;11.950;2022-08-25T01:39:45;102332.88;;;19.12;100.00
13015;BME280;6573;57.696;11.950;2022-08-25T01:42:23;102342.66;;;19.11;100.00
13015;BME280;6573;57.696;11.950;2022-08-25T01:44:55;102340.84;;;19.13;100.00
13015;BME280;6573;57.696;11.950;2022-08-25T01:47:23;102349.78;;;19.09;100.00
13015;BME280;6573;57.696;11.950;2022-08-25T01:49:51;102347.97;;;19.11;100.00
13015;BME280;6573;57.696;11.950;2022-08-25T01:52:27;102346.19;;;19.10;100.00
13015;BME280;6573;57.696;11.950;2022-08-25T01:54:56;102341.03;;;18.98;100.00
13015;BME280;6573;57.696;11.950;2022-08-25T01:57:24;102330.47;;;18.92;100.00
13015;BME280;6573;57.696;11.950;2022-08-25T01:59:52;102356.22;;;18.93;100.00
13015;BME280;6573;57.696;11.950;2022-08-25T02:02:21;102353.66;;;18.87;100.00
13015;BME280;6573;57.696;11.950;2022-08-25T02:04:51;102349.22;;;18.85;100.00
13015;BME280;6573;57.696;11.950;2022-08-25T02:07:22;102342.28;;;18.71;100.00
13015;BME280;6573;57.696;11.950;2022-08-25T02:09:50;102348.41;;;18.78;100.00
13015;BME280;6573;57.696;11.950;2022-08-25T02:12:19;102349.22;;;18.85;100.00
13015;BME280;6573;57.696;11.950;2022-08-25T02:14:47;102344.91;;;18.73;100.00
13015;BME280;6573;57.696;11.950;2022-08-25T02:17:15;102333.38;;;18.72;100.00
13015;BME280;6573;57.696;11.950;2022-08-25T02:19:43;102340.50;;;18.72;100.00
13015;BME280;6573;57.696;11.950;2022-08-25T02:22:12;102342.31;;;18.70;100.00
13015;BME280;6573;57.696;11.950;2022-08-25T02:24:41;102351.22;;;18.66;100.00
13015;BME280;6573;57.696;11.950;2022-08-25T02:27:09;102349.53;;;18.60;100.00
13015;BME280;6573;57.696;11.950;2022-08-25T02:29:38;102325.69;;;18.47;100.00
13015;BME280;6573;57.696;11.950;2022-08-25T02:32:07;102343.34;;;18.57;100.00
13015;BME280;6573;57.696;11.950;2022-08-25T02:34:38;102342.47;;;18.55;100.00
13015;BME280;6573;57.696;11.950;2022-08-25T02:37:07;102346.94;;;18.53;100.00
13015;BME280;6573;57.696;11.950;2022-08-25T02:39:35;102343.41;;;18.51;100.00
13015;BME280;6573;57.696;11.950;2022-08-25T02:42:05;102345.19;;;18.52;100.00
13015;BME280;6573;57.696;11.950;2022-08-25T02:44:36;102336.34;;;18.44;100.00
13015;BME280;6573;57.696;11.950;2022-08-25T02:47:09;102355.06;;;18.39;100.00
13015;BME280;6573;57.696;11.950;2022-08-25T02:49:38;102343.47;;;18.42;100.00
13015;BME280;6573;57.696;11.950;2022-08-25T02:52:07;102348.78;;;18.48;100.00
13015;BME280;6573;57.696;11.950;2022-08-25T02:54:35;102343.56;;;18.36;100.00
13015;BME280;6573;57.696;11.950;2022-08-25T02:57:05;102334.81;;;18.22;100.00
13015;BME280;6573;57.696;11.950;2022-08-25T02:59:33;102342.78;;;18.25;100.00
13015;BME280;6573;57.696;11.950;2022-08-25T03:02:02;102341.88;;;18.26;100.00
13015;BME280;6573;57.696;11.950;2022-08-25T03:04:30;102347.22;;;18.26;100.00
13015;BME280;6573;57.696;11.950;2022-08-25T03:06:58;102341.91;;;18.23;100.00
13015;BME280;6573;57.696;11.950;2022-08-25T03:09:26;102320.78;;;18.04;100.00
13015;BME280;6573;57.696;11.950;2022-08-25T03:11:59;102353.47;;;18.20;100.00
13015;BME280;6573;57.696;11.950;2022-08-25T03:14:29;102349.03;;;18.21;100.00
13015;BME280;6573;57.696;11.950;2022-08-25T03:16:57;102340.13;;;18.22;100.00
13015;BME280;6573;57.696;11.950;2022-08-25T03:19:25;102344.56;;;18.23;100.00
13015;BME280;6573;57.696;11.950;2022-08-25T03:21:54;102329.56;;;18.13;100.00
13015;BME280;6573;57.696;11.950;2022-08-25T03:24:23;102336.66;;;18.13;100.00
13015;BME280;6573;57.696;11.950;2022-08-25T03:26:52;102338.47;;;18.08;100.00
13015;BME280;6573;57.696;11.950;2022-08-25T03:29:21;102342.03;;;18.10;100.00
13015;BME280;6573;57.696;11.950;2022-08-25T03:31:53;102337.56;;;18.11;100.00
13015;BME280;6573;57.696;11.950;2022-08-25T03:34:26;102334.94;;;18.06;100.00
13015;BME280;6573;57.696;11.950;2022-08-25T03:36:56;102337.56;;;18.11;100.00
13015;BME280;6573;57.696;11.950;2022-08-25T03:39:25;102338.47;;;18.08;100.00
13015;BME280;6573;57.696;11.950;2022-08-25T03:41:53;102342.06;;;18.07;100.00
13015;BME280;6573;57.696;11.950;2022-08-25T03:44:21;102323.56;;;17.89;100.00
13015;BME280;6573;57.696;11.950;2022-08-25T03:46:52;102336.06;;;17.86;100.00
13015;BME280;6573;57.696;11.950;2022-08-25T03:49:22;102335.19;;;17.82;100.00
13015;BME280;6573;57.696;11.950;2022-08-25T03:51:53;102333.44;;;17.78;100.00
13015;BME280;6573;57.696;11.950;2022-08-25T03:54:23;102346.81;;;17.74;100.00
13015;BME280;6573;57.696;11.950;2022-08-25T03:56:52;102338.78;;;17.78;100.00
13015;BME280;6573;57.696;11.950;2022-08-25T03:59:20;102335.19;;;17.81;100.00
13015;BME280;6573;57.696;11.950;2022-08-25T04:01:49;102336.97;;;17.80;100.00
13015;BME280;6573;57.696;11.950;2022-08-25T04:04:23;102329.97;;;17.67;100.00
13015;BME280;6573;57.696;11.950;2022-08-25T04:06:51;102339.72;;;17.70;100.00
13015;BME280;6573;57.696;11.950;2022-08-25T04:09:19;102329.13;;;17.65;100.00
13015;BME280;6573;57.696;11.950;2022-08-25T04:11:48;102331.78;;;17.62;100.00
13015;BME280;6573;57.696;11.950;2022-08-25T04:14:19;102337.09;;;17.65;100.00
13015;BME280;6573;57.696;11.950;2022-08-25T04:16:50;102344.16;;;17.69;100.00
13015;BME280;6573;57.696;11.950;2022-08-25T04:19:19;102340.59;;;17.70;100.00
13015;BME280;6573;57.696;11.950;2022-08-25T04:21:49;102337.00;;;17.74;100.00
13015;BME280;6573;57.696;11.950;2022-08-25T04:24:22;102344.09;;;17.78;100.00
13015;BME280;6573;57.696;11.950;2022-08-25T04:26:50;102335.28;;;17.70;100.00
13015;BME280;6573;57.696;11.950;2022-08-25T04:29:21;102338.88;;;17.66;100.00
13015;BME280;6573;57.696;11.950;2022-08-25T04:31:50;102326.47;;;17.62;100.00
13015;BME280;6573;57.696;11.950;2022-08-25T04:34:22;102326.47;;;17.59;100.00
13015;BME280;6573;57.696;11.950;2022-08-25T04:36:59;102330.06;;;17.58;100.00
13015;BME280;6573;57.696;11.950;2022-08-25T04:39:28;102321.13;;;17.62;100.00
13015;BME280;6573;57.696;11.950;2022-08-25T04:41:57;102322.94;;;17.63;100.00
13015;BME280;6573;57.696;11.950;2022-08-25T04:44:27;102315.84;;;17.59;100.00
13015;BME280;6573;57.696;11.950;2022-08-25T04:46:55;102317.63;;;17.60;100.00
13015;BME280;6573;57.696;11.950;2022-08-25T04:49:24;102306.97;;;17.63;100.00
13015;BME280;6573;57.696;11.950;2022-08-25T04:51:52;102322.94;;;17.60;100.00
13015;BME280;6573;57.696;11.950;2022-08-25T04:54:23;102325.63;;;17.56;100.00
13015;BME280;6573;57.696;11.950;2022-08-25T04:56:52;102326.53;;;17.56;100.00
13015;BME280;6573;57.696;11.950;2022-08-25T04:59:25;102326.47;;;17.59;100.00
13015;BME280;6573;57.696;11.950;2022-08-25T05:01:57;102321.22;;;17.56;100.00
13015;BME280;6573;57.696;11.950;2022-08-25T05:04:28;102289.34;;;17.41;100.00
13015;BME280;6573;57.696;11.950;2022-08-25T05:06:58;102315.81;;;17.62;100.00
13015;BME280;6573;57.696;11.950;2022-08-25T05:09:27;102289.28;;;17.47;100.00
13015;BME280;6573;57.696;11.950;2022-08-25T05:11:58;102324.66;;;17.67;100.00
13015;BME280;6573;57.696;11.950;2022-08-25T05:14:27;102321.09;;;17.71;100.00
13015;BME280;6573;57.696;11.950;2022-08-25T05:16:56;102319.28;;;17.73;100.00
13015;BME280;6573;57.696;11.950;2022-08-25T05:19:24;102326.31;;;17.83;100.00
13015;BME280;6573;57.696;11.950;2022-08-25T05:21:53;102328.91;;;17.89;100.00
13015;BME280;6573;57.696;11.950;2022-08-25T05:24:24;102321.88;;;17.79;100.00
13015;BME280;6573;57.696;11.950;2022-08-25T05:26:55;102331.63;;;17.83;100.00
13015;BME280;6573;57.696;11.950;2022-08-25T05:29:24;102336.88;;;17.92;100.00
13015;BME280;6573;57.696;11.950;2022-08-25T05:31:52;102333.34;;;17.87;100.00
13015;BME280;6573;57.696;11.950;2022-08-25T05:34:21;102320.13;;;17.77;100.00
13015;BME280;6573;57.696;11.950;2022-08-25T05:36:50;102339.47;;;17.97;100.00
13015;BME280;6573;57.696;11.950;2022-08-25T05:39:18;102342.16;;;17.98;100.00
13015;BME280;6573;57.696;11.950;2022-08-25T05:41:47;102347.44;;;18.01;100.00
13015;BME280;6573;57.696;11.950;2022-08-25T05:44:16;102339.41;;;18.06;100.00
13015;BME280;6573;57.696;11.950;2022-08-25T05:46:47;102333.16;;;18.08;100.00
13015;BME280;6573;57.696;11.950;2022-08-25T05:49:15;102348.19;;;18.14;100.00
13015;BME280;6573;57.696;11.950;2022-08-25T05:51:44;102334.81;;;18.22;100.00
13015;BME280;6573;57.696;11.950;2022-08-25T05:54:12;102328.50;;;18.29;100.00
13015;BME280;6573;57.696;11.950;2022-08-25T05:56:41;102331.97;;;18.37;100.00
13015;BME280;6573;57.696;11.950;2022-08-25T05:59:11;102325.72;;;18.41;100.00
13015;BME280;6573;57.696;11.950;2022-08-25T06:01:40;102333.69;;;18.47;100.00
13015;BME280;6573;57.696;11.950;2022-08-25T06:04:26;102330.97;;;18.53;100.00
13015;BME280;6573;57.696;11.950;2022-08-25T06:06:54;102318.53;;;18.46;100.00
13015;BME280;6573;57.696;11.950;2022-08-25T06:09:23;102328.28;;;18.51;100.00
13015;BME280;6573;57.696;11.950;2022-08-25T06:11:52;102330.81;;;18.63;100.00
13015;BME280;6573;57.696;11.950;2022-08-25T06:14:21;102316.63;;;18.63;100.00
13015;BME280;6573;57.696;11.950;2022-08-25T06:16:52;102335.25;;;18.64;100.00
13015;BME280;6573;57.696;11.950;2022-08-25T06:19:20;102346.81;;;18.65;100.00
13015;BME280;6573;57.696;11.950;2022-08-25T06:21:52;102346.78;;;18.68;100.00
13015;BME280;6573;57.696;11.950;2022-08-25T06:24:21;102346.66;;;18.77;100.00
13015;BME280;6573;57.696;11.950;2022-08-25T06:26:50;102355.47;;;18.85;100.00
13015;BME280;6573;57.696;11.950;2022-08-25T06:29:18;102353.53;;;18.96;100.00
13015;BME280;6573;57.696;11.950;2022-08-25T06:31:47;102352.59;;;18.99;100.00
13015;BME280;6573;57.696;11.950;2022-08-25T06:34:17;102358.78;;;19.02;100.00
13015;BME280;6573;57.696;11.950;2022-08-25T06:36:52;102355.13;;;19.09;100.00
13015;BME280;6573;57.696;11.950;2022-08-25T06:39:23;102358.50;;;19.20;100.00
13015;BME280;6573;57.696;11.950;2022-08-25T06:41:52;102364.78;;;19.19;100.00
13015;BME280;6573;57.696;11.950;2022-08-25T06:44:20;102328.50;;;19.06;100.00
13015;BME280;6573;57.696;11.950;2022-08-25T06:46:49;102367.31;;;19.28;100.00
13015;BME280;6573;57.696;11.950;2022-08-25T06:49:19;102363.75;;;19.29;100.00
13015;BME280;6573;57.696;11.950;2022-08-25T06:51:48;102366.28;;;19.40;100.00
13015;BME280;6573;57.696;11.950;2022-08-25T06:54:17;102363.50;;;19.48;100.00
13015;BME280;6573;57.696;11.950;2022-08-25T06:56:45;102365.19;;;19.55;100.00
13015;BME280;6573;57.696;11.950;2022-08-25T06:59:15;102365.06;;;19.61;100.00
13015;BME280;6573;57.696;11.950;2022-08-25T07:01:44;102370.34;;;19.67;100.00
13015;BME280;6573;57.696;11.950;2022-08-25T07:04:16;102380.91;;;19.73;100.00
13015;BME280;6573;57.696;11.950;2022-08-25T07:06:45;102373.81;;;19.72;100.00
13015;BME280;6573;57.696;11.950;2022-08-25T07:09:14;102377.22;;;19.80;100.00
13015;BME280;6573;57.696;11.950;2022-08-25T07:11:43;102372.66;;;19.88;100.00
13015;BME280;6573;57.696;11.950;2022-08-25T07:14:13;102369.91;;;19.94;100.00
13015;BME280;6573;57.696;11.950;2022-08-25T07:16:42;102375.22;;;19.94;100.00
13015;BME280;6573;57.696;11.950;2022-08-25T07:19:17;102376.88;;;20.01;100.00
13015;BME280;6573;57.696;11.950;2022-08-25T07:21:51;102373.19;;;20.08;100.00
13015;BME280;6573;57.696;11.950;2022-08-25T07:24:21;102371.28;;;20.16;100.00
13015;BME280;6573;57.696;11.950;2022-08-25T07:26:50;102380.09;;;20.24;100.00
13015;BME280;6573;57.696;11.950;2022-08-25T07:29:20;102377.28;;;20.30;100.00
13015;BME280;6573;57.696;11.950;2022-08-25T07:31:59;102362.06;;;20.35;100.00
13015;BME280;6573;57.696;11.950;2022-08-25T07:34:28;102369.03;;;20.44;100.00
13015;BME280;6573;57.696;11.950;2022-08-25T07:37:21;102373.41;;;20.48;100.00
13015;BME280;6573;57.696;11.950;2022-08-25T07:40:12;102371.53;;;20.53;100.00
13015;BME280;6573;57.696;11.950;2022-08-25T07:42:44;102376.69;;;20.62;100.00
13015;BME280;6573;57.696;11.950;2022-08-25T07:45:13;102373.91;;;20.66;100.00
13015;BME280;6573;57.696;11.950;2022-08-25T07:47:47;102371.97;;;20.75;100.00
13015;BME280;6573;57.696;11.950;2022-08-25T07:50:17;102371.03;;;20.79;100.00
13015;BME280;6573;57.696;11.950;2022-08-25T07:52:48;102363.78;;;20.82;100.00
13015;BME280;6573;57.696;11.950;2022-08-25T07:55:22;102371.66;;;20.90;100.00
13015;BME280;6573;57.696;11.950;2022-08-25T07:57:51;102373.22;;;21.00;100.00
13015;BME280;6573;57.696;11.950;2022-08-25T08:00:23;102345.06;;;20.84;100.00
13015;BME280;6573;57.696;11.950;2022-08-25T08:02:53;102350.94;;;20.99;100.00
13015;BME280;6573;57.696;11.950;2022-08-25T08:05:23;102362.34;;;21.09;100.00
13015;BME280;6573;57.696;11.950;2022-08-25T08:07:53;102372.16;;;21.10;100.00
13015;BME280;6573;57.696;11.950;2022-08-25T08:10:22;102366.66;;;21.17;100.00
13015;BME280;6573;57.696;11.950;2022-08-25T08:13:11;102363.75;;;21.28;100.00
13015;BME280;6573;57.696;11.950;2022-08-25T08:15:45;102363.50;;;21.37;100.00
13015;BME280;6573;57.696;11.950;2022-08-25T08:18:14;102359.84;;;21.41;100.00
13015;BME280;6573;57.696;11.950;2022-08-25T08:20:44;102361.38;;;21.51;100.00
13015;BME280;6573;57.696;11.950;2022-08-25T08:23:15;102371.19;;;21.90;100.00
13015;BME280;6573;57.696;11.950;2022-08-25T08:25:44;102368.06;;;22.75;100.00
13015;BME280;6573;57.696;11.950;2022-08-25T08:28:12;102366.81;;;23.45;100.00
13015;BME280;6573;57.696;11.950;2022-08-25T08:30:40;102370.19;;;24.05;100.00
13015;BME280;6573;57.696;11.950;2022-08-25T08:33:21;102353.56;;;24.20;100.00
13015;BME280;6573;57.696;11.950;2022-08-25T08:35:55;102365.59;;;24.60;100.00
13015;BME280;6573;57.696;11.950;2022-08-25T08:38:26;102357.59;;;25.06;100.00
13015;BME280;6573;57.696;11.950;2022-08-25T08:41:02;102364.50;;;25.13;100.00
13015;BME280;6573;57.696;11.950;2022-08-25T08:43:55;102364.22;;;24.73;100.00
13015;BME280;6573;57.696;11.950;2022-08-25T08:46:34;102363.34;;;24.97;100.00
13015;BME280;6573;57.696;11.950;2022-08-25T08:49:08;102366.38;;;25.11;100.00
13015;BME280;6573;57.696;11.950;2022-08-25T08:51:46;102362.34;;;24.75;100.00
13015;BME280;6573;57.696;11.950;2022-08-25T08:54:22;102365.34;;;24.42;100.00
13015;BME280;6573;57.696;11.950;2022-08-25T08:57:03;102362.56;;;24.19;100.00
13015;BME280;6573;57.696;11.950;2022-08-25T08:59:40;102354.66;;;24.15;100.00
13015;BME280;6573;57.696;11.950;2022-08-25T09:02:15;102355.31;;;23.95;100.00
13015;BME280;6573;57.696;11.950;2022-08-25T09:05:08;102342.38;;;23.80;100.00
13015;BME280;6573;57.696;11.950;2022-08-25T09:07:41;102339.28;;;23.66;100.00
13015;BME280;6573;57.696;11.950;2022-08-25T09:10:15;102342.78;;;23.68;100.00
13015;BME280;6573;57.696;11.950;2022-08-25T09:12:48;102333.31;;;24.10;100.00
13015;BME280;6573;57.696;11.950;2022-08-25T09:15:27;102307.81;;;23.96;100.00
13015;BME280;6573;57.696;11.950;2022-08-25T09:18:19;102348.47;;;24.37;100.00
13015;BME280;6573;57.696;11.950;2022-08-25T09:21:02;102340.75;;;24.28;100.00
13015;BME280;6573;57.696;11.950;2022-08-25T09:23:45;102340.75;;;24.28;100.00
13015;BME280;6573;57.696;11.950;2022-08-25T09:26:25;102330.28;;;24.19;100.00
13015;BME280;6573;57.696;11.950;2022-08-25T09:29:01;102339.91;;;24.00;100.00
13015;BME280;6573;57.696;11.950;2022-08-25T09:31:42;102332.97;;;23.93;100.00
13015;BME280;6573;57.696;11.950;2022-08-25T09:34:12;102327.50;;;23.96;100.00
13015;BME280;6573;57.696;11.950;2022-08-25T09:36:44;102332.41;;;24.11;100.00
13015;BME280;6573;57.696;11.950;2022-08-25T09:39:14;102335.81;;;24.16;100.00
13015;BME280;6573;57.696;11.950;2022-08-25T09:41:47;102325.34;;;24.07;100.00
13015;BME280;6573;57.696;11.950;2022-08-25T09:44:23;102321.50;;;23.88;100.00
13015;BME280;6573;57.696;11.950;2022-08-25T09:46:58;102292.13;;;23.82;100.00
13015;BME280;6573;57.696;11.950;2022-08-25T09:49:37;102315.03;;;24.20;100.00
13015;BME280;6573;57.696;11.950;2022-08-25T09:52:34;102315.13;;;24.41;100.00
13015;BME280;6573;57.696;11.950;2022-08-25T09:55:26;102310.97;;;24.58;100.00
13015;BME280;6573;57.696;11.950;2022-08-25T09:57:59;102304.06;;;24.51;100.00
13015;BME280;6573;57.696;11.950;2022-08-25T10:00:35;102305.78;;;24.52;100.00
13015;BME280;6573;57.696;11.950;2022-08-25T10:03:10;102307.22;;;24.62;100.00
13015;BME280;6573;57.696;11.950;2022-08-25T10:05:56;102293.88;;;24.59;100.00
13015;BME280;6573;57.696;11.950;2022-08-25T10:08:30;102302.69;;;24.87;100.00
13015;BME280;6573;57.696;11.950;2022-08-25T10:11:01;102291.44;;;24.99;100.00
13015;BME280;6573;57.696;11.950;2022-08-25T10:13:38;102296.22;;;25.14;100.00
13015;BME280;6573;57.696;11.950;2022-08-25T10:16:11;102289.22;;;25.10;100.00
13015;BME280;6573;57.696;11.950;2022-08-25T10:19:04;102270.28;;;25.33;100.00
13015;BME280;6573;57.696;11.950;2022-08-25T10:21:33;102276.06;;;25.67;100.00
13015;BME280;6573;57.696;11.950;2022-08-25T10:24:03;102277.03;;;25.87;100.00
13015;BME280;6573;57.696;11.950;2022-08-25T10:26:50;102268.38;;;25.79;100.00
13015;BME280;6573;57.696;11.950;2022-08-25T10:29:33;102257.13;;;25.69;100.00
13015;BME280;6573;57.696;11.950;2022-08-25T10:32:12;102254.09;;;25.77;100.00
13015;BME280;6573;57.696;11.950;2022-08-25T10:34:47;102250.47;;;25.78;100.00
13015;BME280;6573;57.696;11.950;2022-08-25T10:37:26;102252.09;;;25.82;100.00
13015;BME280;6573;57.696;11.950;2022-08-25T10:40:19;102241.34;;;25.60;100.00
13015;BME280;6573;57.696;11.950;2022-08-25T10:42:58;102247.22;;;25.69;100.00
13015;BME280;6573;57.696;11.950;2022-08-25T10:45:33;102252.88;;;25.63;100.00
13015;BME280;6573;57.696;11.950;2022-08-25T10:48:37;102251.97;;;25.85;100.00
13015;BME280;6573;57.696;11.950;2022-08-25T10:54:09;102248.78;;;25.95;100.00
13015;BME280;6573;57.696;11.950;2022-08-25T10:56:42;102251.81;;;26.08;100.00
13015;BME280;6573;57.696;11.950;2022-08-25T10:59:40;102247.38;;;26.07;100.00
13015;BME280;6573;57.696;11.950;2022-08-25T11:02:42;102244.88;;;26.02;100.00
13015;BME280;6573;57.696;11.950;2022-08-25T11:05:19;102249.66;;;25.96;100.00
13015;BME280;6573;57.696;11.950;2022-08-25T11:07:53;102234.16;;;25.81;100.00
13015;BME280;6573;57.696;11.950;2022-08-25T11:10:27;102240.41;;;25.81;100.00
13015;BME280;6573;57.696;11.950;2022-08-25T11:12:58;102236.34;;;25.29;100.00
13015;BME280;6573;57.696;11.950;2022-08-25T11:15:32;102236.34;;;25.29;100.00
13015;BME280;6573;57.696;11.950;2022-08-25T11:18:17;102231.19;;;25.23;100.00
13015;BME280;6573;57.696;11.950;2022-08-25T11:20:56;102240.09;;;25.25;100.00
13015;BME280;6573;57.696;11.950;2022-08-25T11:23:32;102233.06;;;25.21;100.00
13015;BME280;6573;57.696;11.950;2022-08-25T11:26:07;102235.66;;;25.24;100.00
13015;BME280;6573;57.696;11.950;2022-08-25T11:28:49;102225.09;;;25.18;100.00
13015;BME280;6573;57.696;11.950;2022-08-25T11:31:23;102218.69;;;25.22;100.00
13015;BME280;6573;57.696;11.950;2022-08-25T11:33:54;102229.56;;;25.19;100.00
13015;BME280;6573;57.696;11.950;2022-08-25T11:36:28;102222.78;;;25.31;100.00
13015;BME280;6573;57.696;11.950;2022-08-25T11:39:11;102219.66;;;25.41;100.00
13015;BME280;6573;57.696;11.950;2022-08-25T11:41:52;102192.81;;;25.38;100.00
13015;BME280;6573;57.696;11.950;2022-08-25T11:44:38;102212.44;;;25.63;100.00
13015;BME280;6573;57.696;11.950;2022-08-25T11:47:33;102214.88;;;25.69;100.00
13015;BME280;6573;57.696;11.950;2022-08-25T11:50:08;102207.59;;;25.71;100.00
13015;BME280;6573;57.696;11.950;2022-08-25T11:52:56;102206.50;;;25.55;100.00
13015;BME280;6573;57.696;11.950;2022-08-25T11:55:45;102208.50;;;25.50;100.00
13015;BME280;6573;57.696;11.950;2022-08-25T11:58:23;102214.56;;;25.55;100.00
13015;BME280;6573;57.696;11.950;2022-08-25T12:00:58;102210.75;;;25.81;100.00
13015;BME280;6573;57.696;11.950;2022-08-25T12:03:50;102209.19;;;25.96;100.00
13015;BME280;6573;57.696;11.950;2022-08-25T12:06:27;102202.75;;;26.00;100.00
13015;BME280;6573;57.696;11.950;2022-08-25T12:09:17;102204.47;;;26.01;100.00
13015;BME280;6573;57.696;11.950;2022-08-25T12:11:52;102195.03;;;26.11;100.00
13015;BME280;6573;57.696;11.950;2022-08-25T12:14:46;102178.63;;;25.77;100.00
13015;BME280;6573;57.696;11.950;2022-08-25T12:17:36;102182.66;;;25.66;100.00
13015;BME280;6573;57.696;11.950;2022-08-25T12:20:05;102179.28;;;26.02;100.00
13015;BME280;6573;57.696;11.950;2022-08-25T12:22:59;102182.25;;;26.16;100.00
13015;BME280;6573;57.696;11.950;2022-08-25T12:25:44;102181.75;;;26.06;100.00
13015;BME280;6573;57.696;11.950;2022-08-25T12:31:19;102169.31;;;26.22;100.00
13015;BME280;6573;57.696;11.950;2022-08-25T12:34:05;102180.28;;;26.38;100.00
13015;BME280;6573;57.696;11.950;2022-08-25T12:36:54;102175.41;;;26.46;100.00
13015;BME280;6573;57.696;11.950;2022-08-25T12:39:31;102169.28;;;26.61;100.00
13015;BME280;6573;57.696;11.950;2022-08-25T12:42:04;102165.63;;;26.44;100.00
13015;BME280;6573;57.696;11.950;2022-08-25T12:44:38;102165.03;;;26.18;100.00
13015;BME280;6573;57.696;11.950;2022-08-25T12:47:25;102153.84;;;26.07;100.00
13015;BME280;6573;57.696;11.950;2022-08-25T12:50:28;102148.56;;;26.43;100.00
13015;BME280;6573;57.696;11.950;2022-08-25T12:53:08;102147.38;;;26.30;100.00
13015;BME280;6573;57.696;11.950;2022-08-25T12:55:45;102148.69;;;26.40;100.00
13015;BME280;6573;57.696;11.950;2022-08-25T12:58:14;102149.75;;;26.56;100.00
13015;BME280;6573;57.696;11.950;2022-08-25T13:01:03;102126.09;;;26.24;100.00
13015;BME280;6573;57.696;11.950;2022-08-25T13:07:21;102128.19;;;26.17;100.00
13015;BME280;6573;57.696;11.950;2022-08-25T13:13:36;102140.72;;;26.00;100.00
13015;BME280;6573;57.696;11.950;2022-08-25T13:16:08;102139.34;;;26.10;100.00
13015;BME280;6573;57.696;11.950;2022-08-25T13:18:43;102119.38;;;26.14;100.00
13015;BME280;6573;57.696;11.950;2022-08-25T13:21:27;102124.78;;;26.14;100.00
13015;BME280;6573;57.696;11.950;2022-08-25T13:23:58;102114.22;;;26.08;100.00
13015;BME280;6573;57.696;11.950;2022-08-25T13:26:33;102108.25;;;26.21;100.00